Aviation Digital Data Service (ADDS)

Output produced by METARs form (0921 UTC 29 March 2015)
found at http://www.aviationweather.gov/adds/metars/
 
KTHV 290853Z AUTO 28005KT 10SM CLR M07/M13 A3026 RMK AO2 SLP255 T10671128 53006
KTHV 290753Z AUTO 28005KT 10SM CLR M06/M13 A3025 RMK AO2 SLP252 T10561133
KTHV 290653Z AUTO 29005KT 10SM CLR M05/M14 A3024 RMK AO2 SLP249 T10501144
KTHV 290553Z AUTO 31007KT 10SM CLR M04/M15 A3024 RMK AO2 SLP249 T10441150 11017 21050 51018
KTHV 290453Z AUTO 33008G21KT 10SM CLR M04/M15 A3023 RMK AO2 SLP244 T10391150 400171039
KTHV 290353Z AUTO 32008KT 10SM CLR M03/M15 A3021 RMK AO2 SLP240 T10281150
KTHV 290253Z AUTO 33009G16KT 10SM CLR M02/M15 A3018 RMK AO2 SLP230 T10221150 53028
KTHV 290153Z AUTO 28006KT 10SM OVC080 M02/M12 A3015 RMK AO2 SLP220 T10221117
KTHV 290053Z AUTO 28006KT 10SM OVC075 M02/M11 A3013 RMK AO2 SLP211 T10221111
KTHV 282353Z AUTO 29010KT 10SM SCT048 M02/M12 A3010 RMK AO2 SLP201 T10221117 10017 21022 53030
KTHV 282253Z AUTO 29014KT 10SM BKN050 BKN070 M01/M11 A3007 RMK AO2 SLP190 T10111111
KTHV 282153Z AUTO 30015G24KT 10SM BKN055 BKN070 OVC090 M01/M12 A3004 RMK AO2 SLP179 T10061117
KTHV 282053Z AUTO 30018G22KT 10SM SCT040 OVC050 M01/M11 A3001 RMK AO2 SLP170 T10061106 53009
KTHV 281953Z AUTO 29011G20KT 10SM BKN060 BKN085 01/M11 A2999 RMK AO2 SLP162 T00061111
KTHV 281853Z AUTO 31013G19KT 10SM SCT047 OVC055 00/M11 A2998 RMK AO2 SLP161 T00001106
KTHV 281753Z AUTO 32013G20KT 10SM FEW040 OVC050 M01/M09 A2998 RMK AO2 SLP160 60000 T10061094 10006 21039 53001
KTHV 281653Z AUTO 34013G20KT 10SM OVC042 M01/M09 A2998 RMK AO2 SLP158 T10061094
KTHV 281553Z AUTO 34008G21KT 10SM FEW025 SCT031 OVC043 M02/M08 A2998 RMK AO2 SNE38 SLP159 P0000 T10171078
KTHV 281550Z AUTO 34010G21KT 10SM FEW025 BKN032 OVC041 M02/M08 A2998 RMK AO2 SNE38 P0000
KTHV 281515Z AUTO 31010G17KT 3SM -SN SCT018 BKN023 OVC030 M02/M06 A2998 RMK AO2 P0000 T10221061
KTHV 281509Z AUTO 31012KT 2SM -SN BKN021 OVC030 M03/M06 A2998 RMK AO2 VIS 1 1/2V3 P0000 T10281061
KTHV 281453Z AUTO 30011KT 1 1/4SM -SN BKN018 OVC024 M03/M06 A2998 RMK AO2 SLP160 P0000 60000 T10281056 53013
KTHV 281424Z AUTO 31014KT 1 1/4SM -SN BKN018 OVC029 M03/M06 A2998 RMK AO2 P0000 T10331061
KTHV 281402Z AUTO 30014KT 1SM -SN VV016 M03/M06 A2997 RMK AO2 P0000 T10331061
KTHV 281353Z AUTO 31015KT 3/4SM -SN BKN017 OVC023 M03/M06 A2997 RMK AO2 SLP156 P0000 T10331061
KTHV 281347Z AUTO 29010KT 3/4SM -SN BR BKN017 OVC022 M04/M06 A2997 RMK AO2 P0000
KTHV 281325Z AUTO 30012KT 1 1/4SM -SN BKN021 OVC027 M03/M06 A2996 RMK AO2 P0000 T10331061
KTHV 281317Z AUTO 30010G18KT 2SM -SN BKN021 OVC031 M03/M07 A2995 RMK AO2 P0000 T10331067
KTHV 281300Z AUTO 30011G19KT 3SM -SN BKN023 OVC031 M03/M07 A2995 RMK AO2 P0000 T10281067
KTHV 281253Z AUTO 31011KT 2SM -SN BKN023 OVC031 M03/M07 A2995 RMK AO2 SNB01 SLP147 P0000 T10331072
KTHV 281248Z AUTO 31014KT 2SM -SN BKN025 OVC031 M03/M07 A2994 RMK AO2 SNB01 P0000
KTHV 281228Z AUTO 30013G21KT 2 1/2SM -SN OVC029 M03/M07 A2994 RMK AO2 VIS 1 3/4V4 SNB01 P0000 T10281072
KTHV 281153Z AUTO 31010G21KT 9SM OVC040 M03/M07 A2992 RMK AO2 SNE52 SLP139 P0000 60000 T10281072 10006 21028 53023
KTHV 281053Z AUTO 31009KT 4SM -SN FEW017 OVC039 M03/M06 A2990 RMK AO2 SLP130 P0000 T10281056
KTHV 280953Z AUTO 30013G20KT 6SM -SN OVC030 M01/M07 A2987 RMK AO2 SNB41 SLP120 P0000 T10111067
KTHV 280853Z AUTO 30014G19KT 10SM OVC034 M01/M07 A2985 RMK AO2 SLP115 T10061067 53001
KTHV 280753Z AUTO 30009KT 10SM BKN035 M01/M07 A2985 RMK AO2 SLP113 T10061072
KTHV 280653Z AUTO 31010KT 10SM OVC070 00/M08 A2985 RMK AO2 SLP112 T00001083
KTHV 280553Z AUTO 33009KT 10SM OVC065 01/M08 A2985 RMK AO2 SLP114 T00061078 10056 20006 50004
KTHV 280453Z AUTO 32010KT 10SM OVC065 02/M07 A2986 RMK AO2 SLP116 T00171072 400890017
KTHV 280353Z AUTO 33008KT 10SM OVC065 03/M06 A2985 RMK AO2 SLP115 T00281056
KTHV 280253Z AUTO 31009KT 10SM OVC065 04/M05 A2984 RMK AO2 SLP110 T00391050 51016
KTHV 280153Z AUTO 33007KT 10SM OVC060 04/M05 A2983 RMK AO2 SLP108 T00441050
KTHV 280053Z AUTO 32007KT 10SM OVC060 05/M05 A2982 RMK AO2 SLP102 T00501050
KTHV 272353Z AUTO 32007KT 10SM OVC055 06/M04 A2979 RMK AO2 SLP094 T00561044 10089 20056 51014
KTHV 272253Z AUTO 33006KT 10SM OVC055 07/M04 A2978 RMK AO2 SLP090 T00671044
KTHV 272153Z AUTO 31012KT 10SM OVC055 07/M04 A2977 RMK AO2 SLP085 T00721039